Airport View

Enter AWOS ICAO identifier for current METAR.

ex. KFNL

KROG 100158Z AUTO 24005KT 10SM CLR 23/19 A2995 RMK AO2 SLP126 T02280194

10 Jul 2020 02:23

Frequency: 134.375

Phone: 479-631-9196

Other Area AWOS: KVBT - KXNA - KASG - KSLG

TAF KROG 092324Z 1000/1024 VRB03KT P6SM VCSH BKN100 FM100900 VRB03KT P6SM BKN060 PROB30 1011/1017 4SM TSRA BKN040CB FM101700 VRB03KT P6SM VCTS SCT050CB